| time (UTC) | temp F | wind direction | speed knots | gust knots | rain 1hr in | rain 24hr in | rain mn in | humidity % | barometer mb |
| 20260507155922 | 53 | 68 | 1.7 | 5.2 | 0.00 | 0.00 | 0.00 | 76 | 1017.0 |
| 20260507150819 | 52 | 90 | 1.7 | 4.3 | 0.00 | 0.00 | 0.00 | 76 | 1016.7 |
| 20260507141901 | 53 | 22 | 0.9 | 4.3 | 0.00 | 0.00 | 0.00 | 74 | 1016.4 |
| 20260507132559 | 53 | 90 | 1.7 | 5.2 | 0.00 | 0.00 | 0.00 | 73 | 1016.2 |
| 20260507094756 | 47 | 90 | 3.5 | 6.1 | 0.00 | 0.11 | 0.00 | 87 | 1015.1 |
| 20260507085245 | 48 | 90 | 2.6 | 7.0 | 0.00 | 0.27 | 0.00 | 83 | 1014.5 |
| 20260507075505 | 47 | 22 | 3.5 | 4.3 | 0.00 | 0.58 | 0.00 | 86 | 1013.9 |
| 20260507070725 | 47 | 45 | 4.3 | 11.3 | 0.00 | 0.63 | 0.00 | 85 | 1013.4 |
| 20260507061850 | 46 | 22 | 3.5 | 8.7 | 0.00 | 0.65 | 0.00 | 87 | 1013.1 |
| 20260507052254 | 46 | 90 | 4.3 | 9.6 | 0.00 | 0.71 | 0.00 | 89 | 1012.5 |
| 20260507043003 | 46 | 45 | 4.3 | 7.8 | 0.00 | 0.83 | 0.00 | 90 | 1012.0 |
| 20260507033642 | 46 | 45 | 2.6 | 4.3 | 0.00 | 0.98 | 0.00 | 90 | 1011.6 |
| 20260507024935 | 46 | 22 | 3.5 | 5.2 | 0.00 | 1.04 | 0.00 | 91 | 1011.4 |
| 20260507010258 | 45 | 68 | 2.6 | 5.2 | 0.00 | 1.09 | 0.00 | 90 | 1011.0 |
| 20260507001325 | 45 | 45 | 4.3 | 11.3 | 0.00 | 1.09 | 0.00 | 90 | 1010.5 |
| 20260506232009 | 47 | 22 | 4.3 | 6.1 | 0.00 | 1.09 | 0.00 | 92 | 1010.5 |
| 20260506222435 | 50 | 22 | 2.6 | 7.0 | 0.00 | 1.09 | 0.00 | 92 | 1009.7 |
| 20260506213545 | 50 | 22 | 1.7 | 5.2 | 0.00 | 1.09 | 1.09 | 92 | 1009.7 |
| 20260506204758 | 51 | 45 | 3.5 | 6.1 | 0.00 | 1.09 | 1.09 | 92 | 1009.3 |
| 20260506195349 | 51 | 22 | 2.6 | 7.8 | 0.00 | 1.09 | 1.09 | 94 | 1009.3 |
| 20260506180545 | 53 | 45 | 2.6 | 6.1 | 0.00 | 1.09 | 1.09 | 91 | 1008.4 |